createdAt,value
2018-05-17T00:00:01.249Z,30.43
2018-05-17T00:02:29.494Z,27.10
2018-05-17T00:04:57.757Z,28.47
2018-05-17T00:07:26.017Z,34.30
2018-05-17T00:09:55.045Z,31.73
2018-05-17T00:12:23.330Z,25.50
2018-05-17T00:14:51.715Z,32.53
2018-05-17T00:17:19.973Z,30.03
2018-05-17T00:19:48.232Z,28.30
2018-05-17T00:22:16.507Z,36.33
2018-05-17T00:24:45.518Z,25.37
2018-05-17T00:27:13.803Z,31.93
2018-05-17T00:29:42.072Z,28.07
2018-05-17T00:32:10.337Z,32.40
2018-05-17T00:34:38.599Z,34.90
2018-05-17T00:37:07.800Z,25.03
2018-05-17T00:39:36.879Z,23.03
2018-05-17T00:42:05.946Z,23.40
2018-05-17T00:44:34.211Z,34.67
2018-05-17T00:47:02.482Z,45.93
2018-05-17T00:49:30.767Z,44.00
2018-05-17T00:51:59.025Z,35.53
2018-05-17T00:54:27.300Z,38.83
2018-05-17T00:56:55.559Z,31.60
2018-05-17T00:59:23.833Z,31.47
2018-05-17T01:01:52.139Z,25.50
2018-05-17T01:04:20.422Z,27.93
2018-05-17T01:06:48.682Z,37.33
2018-05-17T01:09:16.942Z,27.07
2018-05-17T01:11:45.198Z,22.07
2018-05-17T01:14:13.454Z,29.40
2018-05-17T01:16:41.726Z,29.43
2018-05-17T01:19:10.002Z,26.07
2018-05-17T01:21:38.257Z,30.57
2018-05-17T01:24:06.550Z,28.67
2018-05-17T01:26:34.815Z,32.13
2018-05-17T01:29:03.095Z,24.90
2018-05-17T01:31:31.375Z,26.87
2018-05-17T01:33:59.677Z,22.10
2018-05-17T01:36:27.958Z,26.80
2018-05-17T01:38:56.992Z,29.77
2018-05-17T01:41:25.256Z,28.20
2018-05-17T01:43:53.538Z,29.47
2018-05-17T01:46:21.811Z,33.57
2018-05-17T01:48:50.079Z,29.47
2018-05-17T01:51:18.345Z,31.30
2018-05-17T01:53:46.601Z,30.93
2018-05-17T01:56:15.628Z,25.30
2018-05-17T01:58:43.917Z,38.80
2018-05-17T02:01:12.173Z,26.93
2018-05-17T02:03:40.421Z,23.13
2018-05-17T02:06:09.448Z,25.53
2018-05-17T02:08:37.707Z,33.90
2018-05-17T02:11:05.985Z,25.53
2018-05-17T02:13:34.251Z,31.63
2018-05-17T02:16:03.283Z,31.60
2018-05-17T02:18:31.629Z,31.90
2018-05-17T02:21:00.650Z,27.93
2018-05-17T02:23:28.969Z,23.93
2018-05-17T02:25:57.231Z,41.70
2018-05-17T02:28:25.497Z,20.97
2018-05-17T02:30:53.772Z,26.10
2018-05-17T02:33:22.028Z,21.77
2018-05-17T02:35:50.271Z,26.30
2018-05-17T02:38:19.306Z,26.67
2018-05-17T02:40:47.554Z,21.13
2018-05-17T02:43:16.574Z,20.00
2018-05-17T02:45:44.843Z,26.43
2018-05-17T02:48:13.864Z,22.07
2018-05-17T02:50:42.137Z,28.63
2018-05-17T02:53:10.396Z,29.80
2018-05-17T02:55:38.641Z,28.43
2018-05-17T02:58:06.901Z,26.70
2018-05-17T03:00:35.919Z,21.83
2018-05-17T03:03:04.188Z,38.07
2018-05-17T03:05:32.477Z,40.60
2018-05-17T03:08:00.755Z,22.47
2018-05-17T03:10:29.016Z,26.93
2018-05-17T03:12:57.295Z,31.33
2018-05-17T03:15:25.557Z,26.00
2018-05-17T03:17:54.586Z,25.30
2018-05-17T03:20:22.851Z,25.90
2018-05-17T03:22:51.102Z,23.50
2018-05-17T03:25:20.131Z,28.07
2018-05-17T03:27:48.397Z,28.63
2018-05-17T03:30:16.656Z,22.23
2018-05-17T03:32:45.014Z,28.80
2018-05-17T03:35:14.027Z,30.23
2018-05-17T03:37:42.311Z,37.20
2018-05-17T03:40:10.562Z,35.93
2018-05-17T03:42:39.643Z,32.30
2018-05-17T03:45:07.916Z,25.20
2018-05-17T03:47:36.190Z,30.47
2018-05-17T03:50:05.238Z,25.53
2018-05-17T03:52:33.528Z,24.07
2018-05-17T03:55:01.793Z,32.87
2018-05-17T03:57:30.072Z,27.83
2018-05-17T03:59:58.324Z,33.67
2018-05-17T04:02:38.601Z,39.20
2018-05-17T04:05:18.808Z,23.13
2018-05-17T04:07:47.127Z,42.57
2018-05-17T04:10:15.382Z,29.13
2018-05-17T04:12:43.664Z,21.67
2018-05-17T04:15:11.935Z,26.40
2018-05-17T04:17:40.952Z,28.17
2018-05-17T04:20:09.213Z,24.87
2018-05-17T04:22:38.254Z,29.53
2018-05-17T04:25:06.517Z,27.07
2018-05-17T04:27:34.787Z,39.57
2018-05-17T04:30:03.185Z,25.47
2018-05-17T04:32:31.450Z,18.43
2018-05-17T04:34:59.716Z,22.03
2018-05-17T04:37:27.993Z,27.20
2018-05-17T04:39:56.259Z,19.77
2018-05-17T04:42:24.529Z,20.73
2018-05-17T04:44:52.789Z,27.73
2018-05-17T04:47:21.815Z,13.93
2018-05-17T04:49:50.076Z,19.20
2018-05-17T04:52:18.345Z,20.70
2018-05-17T04:54:47.448Z,15.70
2018-05-17T04:57:15.639Z,28.17
2018-05-17T04:59:43.910Z,19.80
2018-05-17T05:02:12.167Z,24.60
2018-05-17T05:04:41.174Z,19.30
2018-05-17T05:07:09.442Z,18.50
2018-05-17T05:09:37.720Z,12.17
2018-05-17T05:12:05.983Z,15.40
2018-05-17T05:14:34.265Z,16.13
2018-05-17T05:17:02.534Z,23.20
2018-05-17T05:19:30.806Z,15.43
2018-05-17T05:21:59.128Z,17.30
2018-05-17T05:24:27.394Z,28.53
2018-05-17T05:26:55.688Z,26.13
2018-05-17T05:29:23.947Z,13.00
2018-05-17T05:31:52.223Z,17.63
2018-05-17T05:34:20.483Z,24.77
2018-05-17T05:36:48.789Z,15.83
2018-05-17T05:39:17.061Z,13.03
2018-05-17T05:41:45.341Z,14.43
2018-05-17T05:44:13.597Z,17.87
2018-05-17T05:46:41.836Z,12.03
2018-05-17T05:49:10.943Z,10.13
2018-05-17T05:51:39.180Z,18.53
2018-05-17T05:54:07.473Z,21.43
2018-05-17T05:56:36.515Z,21.50
2018-05-17T05:59:04.777Z,18.87
2018-05-17T06:01:33.078Z,16.77
2018-05-17T06:04:01.352Z,16.67
2018-05-17T06:06:29.822Z,16.60
2018-05-17T06:08:58.092Z,12.30
2018-05-17T06:11:26.380Z,11.10
2018-05-17T06:13:54.655Z,15.10
2018-05-17T06:16:23.762Z,26.33
2018-05-17T06:18:52.303Z,16.67
2018-05-17T06:21:21.999Z,17.97
2018-05-17T06:23:51.059Z,14.10
2018-05-17T06:26:19.321Z,13.70
2018-05-17T06:28:47.591Z,23.17
2018-05-17T06:31:15.866Z,12.73
2018-05-17T06:33:44.133Z,12.73
2018-05-17T06:36:12.381Z,11.83
2018-05-17T06:38:41.419Z,17.90
2018-05-17T06:41:09.683Z,17.07
2018-05-17T06:43:37.943Z,22.40
2018-05-17T06:46:06.214Z,18.77
2018-05-17T06:48:34.472Z,29.50
2018-05-17T06:51:03.540Z,13.97
2018-05-17T06:53:32.504Z,11.07
2018-05-17T06:56:00.761Z,21.87
2018-05-17T06:58:29.045Z,10.73
2018-05-17T07:00:57.346Z,16.37
2018-05-17T07:03:25.573Z,15.57
2018-05-17T07:05:54.610Z,23.13
2018-05-17T07:08:22.922Z,28.33
2018-05-17T07:10:51.188Z,10.23
2018-05-17T07:13:19.442Z,15.77
2018-05-17T07:15:47.741Z,18.37
2018-05-17T07:18:16.252Z,7.77
2018-05-17T07:20:45.297Z,15.40
2018-05-17T07:23:13.567Z,16.13
2018-05-17T07:25:41.819Z,19.67
2018-05-17T07:28:10.087Z,17.00
2018-05-17T07:30:39.126Z,15.37
2018-05-17T07:33:07.411Z,12.70
2018-05-17T07:35:35.678Z,12.90
2018-05-17T07:38:03.973Z,9.23
2018-05-17T07:40:32.280Z,9.20
2018-05-17T07:43:01.386Z,19.70
2018-05-17T07:45:29.701Z,14.10
2018-05-17T07:47:58.090Z,11.57
2018-05-17T07:50:26.306Z,20.67
2018-05-17T07:52:55.355Z,9.50
2018-05-17T07:55:24.495Z,10.47
2018-05-17T07:57:53.531Z,18.33
2018-05-17T08:00:21.787Z,15.70
2018-05-17T08:02:50.037Z,17.23
2018-05-17T08:05:19.090Z,19.10
2018-05-17T08:07:47.374Z,14.50
2018-05-17T08:10:15.636Z,11.13
2018-05-17T08:12:43.983Z,15.67
2018-05-17T08:15:12.249Z,14.77
2018-05-17T08:17:40.542Z,12.97
2018-05-17T08:20:08.803Z,13.63
2018-05-17T08:22:37.076Z,9.50
2018-05-17T08:25:05.351Z,18.97
2018-05-17T08:27:33.937Z,11.03
2018-05-17T08:30:02.232Z,14.00
2018-05-17T08:32:30.485Z,18.30
2018-05-17T08:34:58.741Z,7.53
2018-05-17T08:37:27.778Z,12.43
2018-05-17T08:39:56.028Z,8.53
2018-05-17T08:42:24.292Z,13.50
2018-05-17T08:44:53.341Z,10.90
2018-05-17T08:47:21.606Z,14.03
2018-05-17T08:49:49.881Z,16.97
2018-05-17T08:52:18.185Z,9.33
2018-05-17T08:54:46.449Z,13.03
2018-05-17T08:57:14.721Z,12.10
2018-05-17T08:59:43.052Z,10.63
2018-05-17T09:02:11.255Z,8.93
2018-05-17T09:04:39.513Z,28.37
2018-05-17T09:07:07.781Z,12.87
2018-05-17T09:09:36.045Z,11.00
2018-05-17T09:12:05.077Z,9.93
2018-05-17T09:14:33.381Z,15.73
2018-05-17T09:17:02.371Z,8.13
2018-05-17T09:19:30.746Z,12.80
2018-05-17T09:21:58.996Z,16.37
2018-05-17T09:24:27.278Z,12.00
2018-05-17T09:26:55.540Z,15.60
2018-05-17T09:29:23.788Z,12.40
2018-05-17T09:31:52.994Z,12.50
2018-05-17T09:34:21.323Z,14.10
2018-05-17T09:36:49.642Z,13.70
2018-05-17T09:39:17.977Z,20.53
2018-05-17T09:41:47.080Z,17.17
2018-05-17T09:44:16.144Z,14.73
2018-05-17T09:46:44.398Z,16.40
2018-05-17T09:49:12.702Z,15.60
2018-05-17T09:51:40.958Z,16.03
2018-05-17T09:54:09.891Z,13.27
2018-05-17T09:56:38.168Z,14.17
2018-05-17T09:59:06.449Z,18.83
2018-05-17T10:01:34.745Z,17.00
2018-05-17T10:04:03.791Z,16.57
2018-05-17T10:06:32.183Z,15.50
2018-05-17T10:09:00.472Z,25.67
2018-05-17T10:11:29.325Z,18.00
2018-05-17T10:13:57.663Z,9.43
2018-05-17T10:16:25.846Z,9.17
2018-05-17T10:18:55.289Z,16.93
2018-05-17T10:21:23.535Z,15.90
2018-05-17T10:23:51.813Z,19.23
2018-05-17T10:26:20.078Z,11.83
2018-05-17T10:28:48.351Z,15.30
2018-05-17T10:31:16.618Z,8.70
2018-05-17T10:33:45.656Z,15.47
2018-05-17T10:36:16.891Z,18.47
2018-05-17T10:38:45.161Z,19.83
2018-05-17T10:41:13.406Z,22.20
2018-05-17T10:43:42.549Z,19.17
2018-05-17T10:46:10.814Z,14.60
2018-05-17T10:48:39.082Z,12.13
2018-05-17T10:51:07.393Z,14.20
2018-05-17T10:53:35.628Z,21.73
2018-05-17T10:56:03.891Z,14.90
2018-05-17T10:58:32.176Z,14.93
2018-05-17T11:01:00.466Z,12.17
2018-05-17T11:03:28.715Z,13.67
2018-05-17T11:05:57.727Z,14.33
2018-05-17T11:08:26.132Z,18.97
2018-05-17T11:10:54.439Z,22.97
2018-05-17T11:13:22.739Z,22.63
2018-05-17T11:15:51.778Z,15.67
2018-05-17T11:18:20.155Z,18.43
2018-05-17T11:20:48.447Z,15.17
2018-05-17T11:23:16.722Z,15.93
2018-05-17T11:25:45.313Z,13.70
2018-05-17T11:28:13.591Z,13.67
2018-05-17T11:30:41.866Z,16.20
2018-05-17T11:33:10.167Z,14.70
2018-05-17T11:35:38.385Z,11.93
2018-05-17T11:38:06.639Z,12.37
2018-05-17T11:40:35.649Z,11.87
2018-05-17T11:43:03.942Z,20.00
2018-05-17T11:45:32.243Z,14.43
2018-05-17T11:48:01.426Z,17.50
2018-05-17T11:50:29.783Z,12.97
2018-05-17T11:52:58.901Z,17.47
2018-05-17T11:55:27.948Z,17.53
2018-05-17T11:57:56.302Z,17.60
2018-05-17T12:00:25.327Z,13.23
2018-05-17T12:02:53.635Z,15.57
2018-05-17T12:05:21.896Z,20.23
2018-05-17T12:07:50.155Z,17.37
2018-05-17T12:10:18.426Z,12.87
2018-05-17T12:12:46.698Z,14.47
2018-05-17T12:15:15.043Z,15.40
2018-05-17T12:17:43.289Z,11.87
2018-05-17T12:20:12.327Z,17.20
2018-05-17T12:22:40.622Z,16.20
2018-05-17T12:25:08.881Z,15.43
2018-05-17T12:27:37.150Z,16.43
2018-05-17T12:30:06.204Z,11.90
2018-05-17T12:32:34.460Z,13.50
2018-05-17T12:35:04.063Z,20.30
2018-05-17T12:37:32.328Z,14.93
2018-05-17T12:40:00.617Z,13.60
2018-05-17T12:42:29.605Z,15.43
2018-05-17T12:44:58.929Z,7.87
2018-05-17T12:47:27.248Z,19.17
2018-05-17T12:49:56.292Z,16.37
2018-05-17T12:52:24.542Z,21.47
2018-05-17T12:54:52.791Z,13.03
2018-05-17T12:57:21.843Z,18.60
2018-05-17T12:59:50.097Z,20.00
2018-05-17T13:02:18.356Z,18.17
2018-05-17T13:04:46.609Z,14.00
2018-05-17T13:07:15.667Z,10.80
2018-05-17T13:09:43.940Z,19.70
2018-05-17T13:12:12.207Z,11.80
2018-05-17T13:14:41.406Z,17.67
2018-05-17T13:17:11.646Z,18.57
2018-05-17T13:19:39.934Z,21.27
2018-05-17T13:22:08.201Z,12.87
2018-05-17T13:24:36.464Z,17.93
2018-05-17T13:27:05.667Z,21.23
2018-05-17T13:29:33.993Z,19.20
2018-05-17T13:32:03.036Z,19.57
2018-05-17T13:34:31.307Z,12.73
2018-05-17T13:36:59.600Z,14.53
2018-05-17T13:39:27.888Z,10.30
2018-05-17T13:41:56.151Z,12.30
2018-05-17T13:44:24.440Z,14.80
2018-05-17T13:46:52.831Z,16.83
2018-05-17T13:49:21.890Z,13.30
2018-05-17T13:51:50.161Z,11.63
2018-05-17T13:54:18.406Z,20.70
2018-05-17T13:56:47.543Z,22.93
2018-05-17T13:59:15.797Z,10.57
2018-05-17T14:01:44.085Z,13.50
2018-05-17T14:04:12.356Z,13.83
2018-05-17T14:06:40.684Z,14.67
2018-05-17T14:09:08.873Z,15.13
2018-05-17T14:11:37.138Z,20.17
2018-05-17T14:14:06.185Z,25.90
2018-05-17T14:16:34.583Z,18.20
2018-05-17T14:19:02.833Z,17.00
2018-05-17T14:21:31.935Z,12.03
2018-05-17T14:24:00.188Z,21.17
2018-05-17T14:26:28.483Z,19.27
2018-05-17T14:28:57.478Z,22.80
2018-05-17T14:31:25.736Z,15.07
2018-05-17T14:33:53.982Z,11.07
2018-05-17T14:36:22.238Z,15.03
2018-05-17T14:38:51.347Z,24.40
2018-05-17T14:41:19.554Z,22.27
2018-05-17T14:43:47.809Z,12.20
2018-05-17T14:46:16.185Z,12.53
2018-05-17T14:48:44.457Z,17.80
2018-05-17T14:51:13.513Z,15.13
2018-05-17T14:53:41.779Z,15.00
2018-05-17T14:56:10.249Z,20.27
2018-05-17T14:58:38.581Z,24.67
2018-05-17T15:01:07.614Z,15.30
2018-05-17T15:03:35.969Z,18.60
2018-05-17T15:06:05.063Z,14.77
2018-05-17T15:08:34.196Z,17.20
2018-05-17T15:11:03.202Z,18.20
2018-05-17T15:13:31.479Z,16.57
2018-05-17T15:15:59.793Z,13.77
2018-05-17T15:18:28.849Z,12.13
2018-05-17T15:20:57.221Z,14.97
2018-05-17T15:23:25.497Z,18.40
2018-05-17T15:25:53.755Z,14.13
2018-05-17T15:28:22.072Z,14.37
2018-05-17T15:30:50.363Z,13.13
2018-05-17T15:33:19.427Z,14.03
2018-05-17T15:35:47.683Z,13.93
2018-05-17T15:38:16.184Z,13.20
2018-05-17T15:40:44.431Z,18.30
2018-05-17T15:43:12.686Z,12.50
2018-05-17T15:45:40.946Z,12.70
2018-05-17T15:48:10.059Z,15.50
2018-05-17T15:50:38.238Z,33.40
2018-05-17T15:53:06.486Z,15.80
2018-05-17T15:55:35.564Z,12.13
2018-05-17T15:58:03.832Z,20.40
2018-05-17T16:00:34.232Z,8.63
2018-05-17T16:03:02.496Z,21.17
2018-05-17T16:05:30.785Z,21.20
2018-05-17T16:07:59.055Z,18.67
2018-05-17T16:10:27.320Z,17.93
2018-05-17T16:12:56.304Z,12.97
2018-05-17T16:15:24.714Z,21.17
2018-05-17T16:17:53.750Z,13.87
2018-05-17T16:20:22.896Z,16.17
2018-05-17T16:22:51.157Z,19.53
2018-05-17T16:25:19.396Z,13.73
2018-05-17T16:27:48.468Z,18.80
2018-05-17T16:30:16.718Z,16.07
2018-05-17T16:32:45.013Z,21.40
2018-05-17T16:35:13.260Z,18.40
2018-05-17T16:37:41.537Z,21.87
2018-05-17T16:40:09.799Z,17.30
2018-05-17T16:42:38.129Z,14.80
2018-05-17T16:45:06.379Z,16.43
2018-05-17T16:47:34.649Z,19.53
2018-05-17T16:50:02.901Z,9.13
2018-05-17T16:52:31.236Z,21.57
2018-05-17T16:54:59.443Z,17.00
2018-05-17T16:57:27.698Z,24.73
2018-05-17T16:59:55.956Z,19.80
2018-05-17T17:02:24.221Z,14.57
2018-05-17T17:04:52.530Z,15.17
2018-05-17T17:07:20.799Z,20.73
2018-05-17T17:09:49.881Z,14.27
2018-05-17T17:12:18.169Z,22.07
2018-05-17T17:14:46.417Z,16.23
2018-05-17T17:17:14.668Z,19.63
2018-05-17T17:19:42.930Z,12.77
2018-05-17T17:22:11.300Z,25.00
2018-05-17T17:24:40.310Z,20.60
2018-05-17T17:27:08.580Z,19.80
2018-05-17T17:29:36.842Z,20.17
2018-05-17T17:32:05.861Z,16.90
2018-05-17T17:34:34.850Z,24.53
2018-05-17T17:37:03.158Z,20.40
2018-05-17T17:39:31.432Z,24.07
2018-05-17T17:41:59.704Z,20.20
2018-05-17T17:44:27.983Z,15.03
2018-05-17T17:46:56.246Z,19.37
2018-05-17T17:49:24.534Z,23.17
2018-05-17T17:51:52.805Z,18.50
2018-05-17T17:54:21.097Z,17.50
2018-05-17T17:56:49.373Z,19.87
2018-05-17T17:59:17.672Z,23.03
2018-05-17T18:01:45.929Z,19.43
2018-05-17T18:04:14.191Z,16.63
2018-05-17T18:06:42.569Z,16.30
2018-05-17T18:09:10.874Z,22.30
2018-05-17T18:11:39.899Z,19.60
2018-05-17T18:14:08.159Z,13.60
2018-05-17T18:16:37.244Z,15.73
2018-05-17T18:19:07.407Z,18.60
2018-05-17T18:21:35.682Z,14.20
2018-05-17T18:24:03.941Z,13.90
2018-05-17T18:26:32.192Z,18.10
2018-05-17T18:29:00.446Z,13.50
2018-05-17T18:31:28.725Z,18.00
2018-05-17T18:33:57.006Z,24.47
2018-05-17T18:36:25.283Z,23.60
2018-05-17T18:38:53.818Z,14.23
2018-05-17T18:41:22.085Z,19.67
2018-05-17T18:43:50.524Z,22.23
2018-05-17T18:46:18.772Z,25.40
2018-05-17T18:48:47.035Z,14.17
2018-05-17T18:51:15.334Z,27.73
2018-05-17T18:53:43.600Z,17.33
2018-05-17T18:56:11.901Z,14.90
2018-05-17T18:58:40.974Z,16.77
2018-05-17T19:01:09.317Z,26.57
2018-05-17T19:03:37.581Z,27.27
2018-05-17T19:06:06.628Z,19.10
2018-05-17T19:08:34.927Z,13.67
2018-05-17T19:11:04.040Z,14.20
2018-05-17T19:13:33.070Z,22.87
2018-05-17T19:16:01.368Z,20.13
2018-05-17T19:18:29.628Z,20.10
2018-05-17T19:20:57.933Z,24.33
2018-05-17T19:23:26.245Z,16.00
2018-05-17T19:25:55.336Z,28.53
2018-05-17T19:28:23.661Z,21.13
2018-05-17T19:30:51.918Z,23.43
2018-05-17T19:33:20.324Z,17.83
2018-05-17T19:35:48.678Z,22.27
2018-05-17T19:38:17.078Z,25.57
2018-05-17T19:40:45.513Z,23.37
2018-05-17T19:43:13.962Z,17.13
2018-05-17T19:45:42.237Z,19.67
2018-05-17T19:48:12.018Z,31.93
2018-05-17T19:50:40.293Z,25.40
2018-05-17T19:53:08.655Z,26.00
2018-05-17T19:55:36.964Z,21.50
2018-05-17T19:58:05.245Z,13.43
2018-05-17T20:00:33.534Z,23.37
2018-05-17T20:03:01.818Z,29.73
2018-05-17T20:05:30.082Z,16.97
2018-05-17T20:07:59.564Z,26.30
2018-05-17T20:10:27.891Z,21.13
2018-05-17T20:12:56.953Z,26.90
2018-05-17T20:15:25.214Z,21.87
2018-05-17T20:17:53.513Z,19.23
2018-05-17T20:20:22.584Z,27.03
2018-05-17T20:22:50.929Z,28.30
2018-05-17T20:25:19.192Z,22.80
2018-05-17T20:27:48.232Z,43.67
2018-05-17T20:30:16.528Z,25.47
2018-05-17T20:32:44.793Z,23.93
2018-05-17T20:35:13.082Z,27.17
2018-05-17T20:37:42.137Z,21.30
2018-05-17T20:40:10.410Z,31.50
2018-05-17T20:42:38.702Z,22.20
2018-05-17T20:45:07.841Z,26.73
2018-05-17T20:47:36.146Z,24.37
2018-05-17T20:50:05.238Z,25.50
2018-05-17T20:52:33.504Z,23.20
2018-05-17T20:55:02.601Z,25.97
2018-05-17T20:57:31.629Z,23.50
2018-05-17T20:59:59.922Z,23.70
2018-05-17T21:02:28.217Z,27.83
2018-05-17T21:04:56.516Z,18.63
2018-05-17T21:07:25.791Z,20.23
2018-05-17T21:09:54.094Z,25.67
2018-05-17T21:12:23.151Z,35.50
2018-05-17T21:14:51.425Z,30.50
2018-05-17T21:17:19.727Z,25.47
2018-05-17T21:19:47.984Z,23.77
2018-05-17T21:22:16.242Z,26.13
2018-05-17T21:24:44.486Z,23.60
2018-05-17T21:27:12.780Z,19.73
2018-05-17T21:29:41.093Z,26.13
2018-05-17T21:32:09.350Z,30.70
2018-05-17T21:34:37.630Z,22.10
2018-05-17T21:37:05.895Z,29.93
2018-05-17T21:39:34.217Z,27.00
2018-05-17T21:42:02.411Z,20.07
2018-05-17T21:44:30.666Z,30.17
2018-05-17T21:46:58.943Z,26.90
2018-05-17T21:49:27.980Z,25.90
2018-05-17T21:51:56.547Z,29.33
2018-05-17T21:54:26.704Z,26.47
2018-05-17T21:56:55.011Z,20.17
2018-05-17T21:59:23.272Z,30.00
2018-05-17T22:01:51.530Z,30.97
2018-05-17T22:04:19.787Z,28.50
2018-05-17T22:06:48.060Z,26.03
2018-05-17T22:09:16.304Z,30.10
2018-05-17T22:11:45.345Z,27.50
2018-05-17T22:14:13.601Z,23.97
2018-05-17T22:16:41.851Z,22.33
2018-05-17T22:19:10.874Z,24.97
2018-05-17T22:21:39.123Z,31.67
2018-05-17T22:24:07.389Z,21.73
2018-05-17T22:26:36.470Z,32.53
2018-05-17T22:29:04.737Z,23.50
2018-05-17T22:31:33.009Z,20.93
2018-05-17T22:34:01.266Z,21.50
2018-05-17T22:36:29.518Z,25.03
2018-05-17T22:38:57.778Z,23.70
2018-05-17T22:41:26.057Z,33.10
2018-05-17T22:43:54.318Z,29.23
2018-05-17T22:46:23.343Z,28.03
2018-05-17T22:48:51.597Z,39.80
2018-05-17T22:51:19.875Z,26.83
2018-05-17T22:53:48.898Z,18.83
2018-05-17T22:56:29.042Z,30.27
2018-05-17T22:58:57.306Z,26.37
2018-05-17T23:01:25.545Z,25.43
2018-05-17T23:03:53.814Z,20.50
2018-05-17T23:06:22.095Z,30.60
2018-05-17T23:08:50.344Z,39.43
2018-05-17T23:11:18.593Z,22.73
2018-05-17T23:13:46.847Z,26.20
2018-05-17T23:16:15.870Z,19.80
2018-05-17T23:18:44.155Z,30.93
2018-05-17T23:21:12.418Z,33.33
2018-05-17T23:23:40.672Z,33.77
2018-05-17T23:26:09.735Z,26.70
2018-05-17T23:28:38.020Z,32.50
2018-05-17T23:31:07.036Z,43.80
2018-05-17T23:33:36.052Z,34.03
2018-05-17T23:36:04.319Z,33.97
2018-05-17T23:38:32.620Z,29.67
2018-05-17T23:41:12.860Z,23.67
2018-05-17T23:43:41.122Z,36.90
2018-05-17T23:46:09.383Z,48.57
2018-05-17T23:48:37.688Z,27.63
2018-05-17T23:51:06.060Z,37.23
2018-05-17T23:53:34.281Z,37.97
2018-05-17T23:56:02.548Z,35.13
2018-05-17T23:58:30.792Z,30.10
